This is the latest recevied weather packets stored in our database for station/object WV8BRW. If no packets are shown the sender has not sent any weather packets the latest 1 day(s).
| Time | Temp. | Humidity | Pressure | Rain* | Wind** | Luminosity | Snow |
|---|---|---|---|---|---|---|---|
| 1778046616 | 14.44° C | 99% | 1006.4 hPa | 0 mm | - | 0 W/m² | - |
| 1778046009 | 14.44° C | 99% | 1006.5 hPa | 0 mm | - | 0 W/m² | - |
| 1778045104 | 14.44° C | 99% | 1006.3 hPa | 0 mm | - | 0 W/m² | - |
| 1778044801 | 14.44° C | 99% | 1006.2 hPa | 0 mm | - | 0 W/m² | - |
| 1778044194 | 14.44° C | 99% | 1006.3 hPa | 0 mm | - | 0 W/m² | - |
| 1778043893 | 14.44° C | 99% | 1006.3 hPa | 0 mm | - | 0 W/m² | - |
| 1778043286 | 15° C | 99% | 1006.1 hPa | 0 mm | - | 0 W/m² | - |
| 1778042681 | 15° C | 99% | 1006.3 hPa | 0 mm | - | 0 W/m² | - |
| 1778042377 | 15° C | 99% | 1006.4 hPa | 0 mm | - | 0 W/m² | - |
| 1778041772 | 15° C | 99% | 1006.2 hPa | 0 mm | - | 0 W/m² | - |
| 1778041169 | 15° C | 99% | 1006.3 hPa | 0 mm | - | 0 W/m² | - |
| 1778040867 | 15° C | 98% | 1006.4 hPa | 1.78 mm | - | 0 W/m² | - |
| 1778040564 | 14.44° C | 99% | 1006.3 hPa | 1.78 mm | - | 0 W/m² | - |
| 1778039957 | 14.44° C | 99% | 1006.7 hPa | 0 mm | - | 0 W/m² | - |
| 1778039655 | 14.44° C | 99% | 1006.4 hPa | 0 mm | - | 0 W/m² | - |
| 1778038443 | 15° C | 96% | 1006.2 hPa | 0 mm | - | 0 W/m² | - |
| 1778037836 | 15° C | 95% | 1006.4 hPa | 0 mm | - | 0 W/m² | - |
| 1778037533 | 15° C | 93% | 1006.9 hPa | 0 mm | - | 0 W/m² | - |
| 1778036928 | 16.11° C | 86% | 1006.3 hPa | 0 mm | - | 0 W/m² | - |
| 1778036626 | 16.11° C | 85% | 1006.4 hPa | 0 mm | - | 0 W/m² | - |
| 1778036019 | 16.67° C | 79% | 1006.6 hPa | 0 mm | - | 0 W/m² | - |
| 1778035716 | 17.22° C | 76% | 1006.6 hPa | 0 mm | - | 0 W/m² | - |
| 1778035413 | 16.67° C | 76% | 1006.7 hPa | 0 mm | - | 0 W/m² | - |
| 1778035109 | 17.22° C | 78% | 1006.7 hPa | 0 mm | - | 0 W/m² | - |
| 1778034806 | 17.22° C | 77% | 1006.9 hPa | 0 mm | - | 0 W/m² | - |
* Rain latest hour (hover to see other rain measurements)
** Current wind speed in m/s (hover to see current wind gust speed)